Airfield :
LOGIN :

Register | Disclaimer

   EN    FR    IT 

 










Legend :    VFR   Marginal VFR   IFR   Intensive IFR   Very Intensive IFR
Visi :
Ceiling :
>= 8 km
>= 3000ft
5 to 8 km
1000 to 3000 ft
1500m to 5 km
500 to 1000 ft
800 to 1500m
200 to 500 ft
< 800m
< 200 ft
Symbols :   Thunderstorms  Fog  Heavy snow  Heavy precipitations  Wind > 20 kt
SIGMETs :     Misc.  Thunderstorms  Icing  Turbulence  Mountain Waves  Volcanic Ashes






- Airport Elevation : 650 ft
- IATA code : ZJI


LSZL - Locarno

CURRENT METAR :
  • 250720Z 10002KT 7000 SCT022 OVC028 01/M01 Q1035 RMK WHT

EXPIRED METARs :
  • 250650Z 08002KT 7000 OVC020 01/M02 Q1034 RMK WHT
  • 250620Z 00000KT 7000 BKN025 01/M01 Q1035 RMK WHT
  • 250550Z AUTO VRB01KT 7000NDV SCT021 01/M01 Q1035 RMK
  • 250520Z AUTO VRB01KT 7000NDV FEW012 SCT021 01/M01 Q1034 RMK
  • 250450Z AUTO 00000KT 6000NDV SCT021 00/M01 Q1035 RMK

TAF TAF LSZL
Valid from the 25 at 06:00 until the 25 at 15:00 UTC


250525Z 2506/2515 VRB02KT 9999 SCT015
TEMPO 2506/2509 5000 BR BKN015
BECMG 2512/2515 CAVOK



MET'MAP, your aeronautical weather chart ! - Copyright ORBIFLY December 2007 - Disclaimer

ORBIFLY MET'MAP TEAM :

Programming & Development : Alexandra Zaïnal
Original concept : Baudouin d'Aumeries
Technical & hardware support : Manuel Goepfert
Assistance : Marc-Olivier Méhu

Contact : metmap@orbifly.com




SOURCES & CREDITS :

   NOAA